sensor_id;sensor_type;location;lat;lon;timestamp;temperature;humidity
45643;DHT22;31358;46.008;11.144;2024-03-06T00:02:00;8.50;99.90
45643;DHT22;31358;46.008;11.144;2024-03-06T00:04:26;8.50;99.90
45643;DHT22;31358;46.008;11.144;2024-03-06T00:06:52;8.50;99.90
45643;DHT22;31358;46.008;11.144;2024-03-06T00:09:19;8.50;99.90
45643;DHT22;31358;46.008;11.144;2024-03-06T00:11:45;8.40;99.90
45643;DHT22;31358;46.008;11.144;2024-03-06T00:14:10;8.50;99.90
45643;DHT22;31358;46.008;11.144;2024-03-06T00:16:38;8.50;99.90
45643;DHT22;31358;46.008;11.144;2024-03-06T00:19:04;8.50;99.90
45643;DHT22;31358;46.008;11.144;2024-03-06T00:21:30;8.50;99.90
45643;DHT22;31358;46.008;11.144;2024-03-06T00:23:55;8.50;99.90
45643;DHT22;31358;46.008;11.144;2024-03-06T00:26:21;8.50;99.90
45643;DHT22;31358;46.008;11.144;2024-03-06T00:28:47;8.50;99.90
45643;DHT22;31358;46.008;11.144;2024-03-06T00:31:13;8.40;99.90
45643;DHT22;31358;46.008;11.144;2024-03-06T00:33:40;8.40;99.90
45643;DHT22;31358;46.008;11.144;2024-03-06T00:36:06;8.30;99.90
45643;DHT22;31358;46.008;11.144;2024-03-06T00:38:32;8.30;99.90
45643;DHT22;31358;46.008;11.144;2024-03-06T00:40:57;8.20;99.90
45643;DHT22;31358;46.008;11.144;2024-03-06T00:43:23;8.20;99.90
45643;DHT22;31358;46.008;11.144;2024-03-06T00:45:49;8.30;99.90
45643;DHT22;31358;46.008;11.144;2024-03-06T00:48:15;8.10;99.90
45643;DHT22;31358;46.008;11.144;2024-03-06T00:50:40;8.00;99.90
45643;DHT22;31358;46.008;11.144;2024-03-06T00:53:06;8.00;99.90
45643;DHT22;31358;46.008;11.144;2024-03-06T00:55:32;8.00;99.90
45643;DHT22;31358;46.008;11.144;2024-03-06T00:57:58;8.00;99.90
45643;DHT22;31358;46.008;11.144;2024-03-06T01:00:23;8.00;99.90
45643;DHT22;31358;46.008;11.144;2024-03-06T01:02:49;7.90;99.90
45643;DHT22;31358;46.008;11.144;2024-03-06T01:05:15;7.90;99.90
45643;DHT22;31358;46.008;11.144;2024-03-06T01:07:41;8.00;99.90
45643;DHT22;31358;46.008;11.144;2024-03-06T01:10:07;7.90;99.90
45643;DHT22;31358;46.008;11.144;2024-03-06T01:12:33;7.80;99.90
45643;DHT22;31358;46.008;11.144;2024-03-06T01:15:00;7.80;99.90
45643;DHT22;31358;46.008;11.144;2024-03-06T01:17:26;7.80;99.90
45643;DHT22;31358;46.008;11.144;2024-03-06T01:19:52;7.80;99.90
45643;DHT22;31358;46.008;11.144;2024-03-06T01:22:18;7.70;99.90
45643;DHT22;31358;46.008;11.144;2024-03-06T01:24:44;7.70;99.90
45643;DHT22;31358;46.008;11.144;2024-03-06T01:27:10;7.70;99.90
45643;DHT22;31358;46.008;11.144;2024-03-06T01:29:36;7.60;99.90
45643;DHT22;31358;46.008;11.144;2024-03-06T01:32:02;7.60;99.90
45643;DHT22;31358;46.008;11.144;2024-03-06T01:34:28;7.60;99.90
45643;DHT22;31358;46.008;11.144;2024-03-06T01:36:53;7.60;99.90
45643;DHT22;31358;46.008;11.144;2024-03-06T01:39:19;7.60;99.90
45643;DHT22;31358;46.008;11.144;2024-03-06T01:41:49;7.50;99.90
45643;DHT22;31358;46.008;11.144;2024-03-06T01:44:16;7.40;99.90
45643;DHT22;31358;46.008;11.144;2024-03-06T01:46:43;7.40;99.90
45643;DHT22;31358;46.008;11.144;2024-03-06T01:49:11;7.40;99.90
45643;DHT22;31358;46.008;11.144;2024-03-06T01:51:39;7.40;99.90
45643;DHT22;31358;46.008;11.144;2024-03-06T01:54:05;7.30;99.90
45643;DHT22;31358;46.008;11.144;2024-03-06T01:56:33;7.40;99.90
45643;DHT22;31358;46.008;11.144;2024-03-06T01:59:00;7.40;99.90
45643;DHT22;31358;46.008;11.144;2024-03-06T02:01:26;7.30;99.90
45643;DHT22;31358;46.008;11.144;2024-03-06T02:03:52;7.30;99.90
45643;DHT22;31358;46.008;11.144;2024-03-06T02:06:19;7.20;99.90
45643;DHT22;31358;46.008;11.144;2024-03-06T02:08:48;7.20;99.90
45643;DHT22;31358;46.008;11.144;2024-03-06T02:11:14;7.10;99.90
45643;DHT22;31358;46.008;11.144;2024-03-06T02:13:42;7.10;99.90
45643;DHT22;31358;46.008;11.144;2024-03-06T02:16:09;7.20;99.90
45643;DHT22;31358;46.008;11.144;2024-03-06T02:18:35;7.20;99.90
45643;DHT22;31358;46.008;11.144;2024-03-06T02:21:02;7.20;99.90
45643;DHT22;31358;46.008;11.144;2024-03-06T02:23:28;7.10;99.90
45643;DHT22;31358;46.008;11.144;2024-03-06T02:25:54;6.90;99.90
45643;DHT22;31358;46.008;11.144;2024-03-06T02:28:19;6.90;99.90
45643;DHT22;31358;46.008;11.144;2024-03-06T02:30:45;6.90;99.90
45643;DHT22;31358;46.008;11.144;2024-03-06T02:33:14;6.90;99.90
45643;DHT22;31358;46.008;11.144;2024-03-06T02:35:40;7.00;99.90
45643;DHT22;31358;46.008;11.144;2024-03-06T02:38:06;6.90;99.90
45643;DHT22;31358;46.008;11.144;2024-03-06T02:40:32;6.90;99.90
45643;DHT22;31358;46.008;11.144;2024-03-06T02:42:58;6.90;99.90
45643;DHT22;31358;46.008;11.144;2024-03-06T02:45:23;6.90;99.90
45643;DHT22;31358;46.008;11.144;2024-03-06T02:47:49;6.80;99.90
45643;DHT22;31358;46.008;11.144;2024-03-06T02:50:15;6.80;99.90
45643;DHT22;31358;46.008;11.144;2024-03-06T02:52:41;6.90;99.90
45643;DHT22;31358;46.008;11.144;2024-03-06T02:55:07;6.90;99.90
45643;DHT22;31358;46.008;11.144;2024-03-06T02:57:33;7.00;99.90
45643;DHT22;31358;46.008;11.144;2024-03-06T02:59:59;7.00;99.90
45643;DHT22;31358;46.008;11.144;2024-03-06T03:02:24;7.00;99.90
45643;DHT22;31358;46.008;11.144;2024-03-06T03:04:51;7.00;99.90
45643;DHT22;31358;46.008;11.144;2024-03-06T03:07:18;6.80;99.90
45643;DHT22;31358;46.008;11.144;2024-03-06T03:09:45;6.80;99.90
45643;DHT22;31358;46.008;11.144;2024-03-06T03:12:11;6.80;99.90
45643;DHT22;31358;46.008;11.144;2024-03-06T03:14:37;6.70;99.90
45643;DHT22;31358;46.008;11.144;2024-03-06T03:17:03;6.70;99.90
45643;DHT22;31358;46.008;11.144;2024-03-06T03:19:31;6.70;99.90
45643;DHT22;31358;46.008;11.144;2024-03-06T03:21:57;6.70;99.90
45643;DHT22;31358;46.008;11.144;2024-03-06T03:24:23;6.80;99.90
45643;DHT22;31358;46.008;11.144;2024-03-06T03:26:51;6.80;99.90
45643;DHT22;31358;46.008;11.144;2024-03-06T03:29:18;6.70;99.90
45643;DHT22;31358;46.008;11.144;2024-03-06T03:31:43;6.60;99.90
45643;DHT22;31358;46.008;11.144;2024-03-06T03:34:09;6.70;99.90
45643;DHT22;31358;46.008;11.144;2024-03-06T03:36:42;6.80;99.90
45643;DHT22;31358;46.008;11.144;2024-03-06T03:39:10;6.80;99.90
45643;DHT22;31358;46.008;11.144;2024-03-06T03:41:45;6.80;99.90
45643;DHT22;31358;46.008;11.144;2024-03-06T03:44:13;6.80;99.90
45643;DHT22;31358;46.008;11.144;2024-03-06T03:46:38;6.80;99.90
45643;DHT22;31358;46.008;11.144;2024-03-06T03:49:04;6.70;99.90
45643;DHT22;31358;46.008;11.144;2024-03-06T03:51:30;6.60;99.90
45643;DHT22;31358;46.008;11.144;2024-03-06T03:53:55;6.70;99.90
45643;DHT22;31358;46.008;11.144;2024-03-06T03:56:21;6.90;99.90
45643;DHT22;31358;46.008;11.144;2024-03-06T03:58:47;6.90;99.90
45643;DHT22;31358;46.008;11.144;2024-03-06T04:01:13;6.70;99.90
45643;DHT22;31358;46.008;11.144;2024-03-06T04:03:38;6.80;99.90
45643;DHT22;31358;46.008;11.144;2024-03-06T04:06:06;6.80;99.90
45643;DHT22;31358;46.008;11.144;2024-03-06T04:08:32;6.90;99.90
45643;DHT22;31358;46.008;11.144;2024-03-06T04:10:58;6.90;99.90
45643;DHT22;31358;46.008;11.144;2024-03-06T04:13:24;6.80;99.90
45643;DHT22;31358;46.008;11.144;2024-03-06T04:15:49;6.70;99.90
45643;DHT22;31358;46.008;11.144;2024-03-06T04:18:15;6.60;99.90
45643;DHT22;31358;46.008;11.144;2024-03-06T04:20:40;6.60;99.90
45643;DHT22;31358;46.008;11.144;2024-03-06T04:23:06;6.60;99.90
45643;DHT22;31358;46.008;11.144;2024-03-06T04:25:35;6.50;99.90
45643;DHT22;31358;46.008;11.144;2024-03-06T04:28:01;6.50;99.90
45643;DHT22;31358;46.008;11.144;2024-03-06T04:30:28;6.60;99.90
45643;DHT22;31358;46.008;11.144;2024-03-06T04:32:53;6.60;99.90
45643;DHT22;31358;46.008;11.144;2024-03-06T04:35:19;6.50;99.90
45643;DHT22;31358;46.008;11.144;2024-03-06T04:37:45;6.60;99.90
45643;DHT22;31358;46.008;11.144;2024-03-06T04:40:11;6.40;99.90
45643;DHT22;31358;46.008;11.144;2024-03-06T04:42:36;6.40;99.90
45643;DHT22;31358;46.008;11.144;2024-03-06T04:45:11;6.30;99.90
45643;DHT22;31358;46.008;11.144;2024-03-06T04:47:38;6.40;99.90
45643;DHT22;31358;46.008;11.144;2024-03-06T04:50:07;6.50;99.90
45643;DHT22;31358;46.008;11.144;2024-03-06T04:52:34;6.50;99.90
45643;DHT22;31358;46.008;11.144;2024-03-06T04:55:00;6.50;99.90
45643;DHT22;31358;46.008;11.144;2024-03-06T04:57:26;6.50;99.90
45643;DHT22;31358;46.008;11.144;2024-03-06T04:59:52;6.40;99.90
45643;DHT22;31358;46.008;11.144;2024-03-06T05:02:17;6.30;99.90
45643;DHT22;31358;46.008;11.144;2024-03-06T05:04:43;6.50;99.90
45643;DHT22;31358;46.008;11.144;2024-03-06T05:07:09;6.60;99.90
45643;DHT22;31358;46.008;11.144;2024-03-06T05:09:35;6.50;99.90
45643;DHT22;31358;46.008;11.144;2024-03-06T05:12:01;6.60;99.90
45643;DHT22;31358;46.008;11.144;2024-03-06T05:14:26;6.70;99.90
45643;DHT22;31358;46.008;11.144;2024-03-06T05:16:52;6.50;99.90
45643;DHT22;31358;46.008;11.144;2024-03-06T05:19:18;6.30;99.90
45643;DHT22;31358;46.008;11.144;2024-03-06T05:21:44;6.30;99.90
45643;DHT22;31358;46.008;11.144;2024-03-06T05:24:09;6.30;99.90
45643;DHT22;31358;46.008;11.144;2024-03-06T05:26:35;6.40;99.90
45643;DHT22;31358;46.008;11.144;2024-03-06T05:29:01;6.40;99.90
45643;DHT22;31358;46.008;11.144;2024-03-06T05:31:26;6.30;99.90
45643;DHT22;31358;46.008;11.144;2024-03-06T05:33:52;6.40;99.90
45643;DHT22;31358;46.008;11.144;2024-03-06T05:36:18;6.40;99.90
45643;DHT22;31358;46.008;11.144;2024-03-06T05:38:46;6.50;99.90
45643;DHT22;31358;46.008;11.144;2024-03-06T05:41:14;6.50;99.90
45643;DHT22;31358;46.008;11.144;2024-03-06T05:43:39;6.40;99.90
45643;DHT22;31358;46.008;11.144;2024-03-06T05:46:06;6.50;99.90
45643;DHT22;31358;46.008;11.144;2024-03-06T05:48:32;6.50;99.90
45643;DHT22;31358;46.008;11.144;2024-03-06T05:50:59;6.50;99.90
45643;DHT22;31358;46.008;11.144;2024-03-06T05:53:25;6.60;99.90
45643;DHT22;31358;46.008;11.144;2024-03-06T05:55:51;6.70;99.90
45643;DHT22;31358;46.008;11.144;2024-03-06T05:58:17;6.50;99.90
45643;DHT22;31358;46.008;11.144;2024-03-06T06:00:45;6.40;99.90
45643;DHT22;31358;46.008;11.144;2024-03-06T06:03:11;6.30;99.90
45643;DHT22;31358;46.008;11.144;2024-03-06T06:05:38;6.40;99.90
45643;DHT22;31358;46.008;11.144;2024-03-06T06:08:05;6.40;99.90
45643;DHT22;31358;46.008;11.144;2024-03-06T06:10:31;6.50;99.90
45643;DHT22;31358;46.008;11.144;2024-03-06T06:12:56;6.50;99.90
45643;DHT22;31358;46.008;11.144;2024-03-06T06:15:22;6.60;99.90
45643;DHT22;31358;46.008;11.144;2024-03-06T06:17:48;6.70;99.90
45643;DHT22;31358;46.008;11.144;2024-03-06T06:20:13;6.70;99.90
45643;DHT22;31358;46.008;11.144;2024-03-06T06:22:41;6.70;99.90
45643;DHT22;31358;46.008;11.144;2024-03-06T06:25:07;6.60;99.90
45643;DHT22;31358;46.008;11.144;2024-03-06T06:27:33;6.60;99.90
45643;DHT22;31358;46.008;11.144;2024-03-06T06:29:59;6.60;99.90
45643;DHT22;31358;46.008;11.144;2024-03-06T06:32:24;6.60;99.90
45643;DHT22;31358;46.008;11.144;2024-03-06T06:34:50;6.70;99.90
45643;DHT22;31358;46.008;11.144;2024-03-06T06:37:17;6.70;99.90
45643;DHT22;31358;46.008;11.144;2024-03-06T06:39:45;6.70;99.90
45643;DHT22;31358;46.008;11.144;2024-03-06T06:42:11;6.70;99.90
45643;DHT22;31358;46.008;11.144;2024-03-06T06:44:36;6.60;99.90
45643;DHT22;31358;46.008;11.144;2024-03-06T06:47:02;6.50;99.90
45643;DHT22;31358;46.008;11.144;2024-03-06T06:49:28;6.60;99.90
45643;DHT22;31358;46.008;11.144;2024-03-06T06:51:54;6.70;99.90
45643;DHT22;31358;46.008;11.144;2024-03-06T06:54:19;6.80;99.90
45643;DHT22;31358;46.008;11.144;2024-03-06T06:56:45;6.90;99.90
45643;DHT22;31358;46.008;11.144;2024-03-06T06:59:11;6.80;99.90
45643;DHT22;31358;46.008;11.144;2024-03-06T07:01:39;6.90;99.90
45643;DHT22;31358;46.008;11.144;2024-03-06T07:04:06;7.00;99.90
45643;DHT22;31358;46.008;11.144;2024-03-06T07:06:31;7.20;99.90
45643;DHT22;31358;46.008;11.144;2024-03-06T07:08:57;7.20;99.90
45643;DHT22;31358;46.008;11.144;2024-03-06T07:11:23;7.20;99.90
45643;DHT22;31358;46.008;11.144;2024-03-06T07:13:49;7.10;99.90
45643;DHT22;31358;46.008;11.144;2024-03-06T07:16:15;7.10;99.90
45643;DHT22;31358;46.008;11.144;2024-03-06T07:18:41;7.20;99.90
45643;DHT22;31358;46.008;11.144;2024-03-06T07:21:06;7.20;99.90
45643;DHT22;31358;46.008;11.144;2024-03-06T07:23:32;7.30;99.90
45643;DHT22;31358;46.008;11.144;2024-03-06T07:25:58;7.10;99.90
45643;DHT22;31358;46.008;11.144;2024-03-06T07:28:25;7.00;99.90
45643;DHT22;31358;46.008;11.144;2024-03-06T07:30:51;7.00;99.90
45643;DHT22;31358;46.008;11.144;2024-03-06T07:33:17;7.00;99.90
45643;DHT22;31358;46.008;11.144;2024-03-06T07:35:42;7.00;99.90
45643;DHT22;31358;46.008;11.144;2024-03-06T07:38:08;7.10;99.90
45643;DHT22;31358;46.008;11.144;2024-03-06T07:40:34;7.10;99.90
45643;DHT22;31358;46.008;11.144;2024-03-06T07:42:59;7.30;99.90
45643;DHT22;31358;46.008;11.144;2024-03-06T07:45:25;7.20;99.90
45643;DHT22;31358;46.008;11.144;2024-03-06T07:47:52;7.20;99.90
45643;DHT22;31358;46.008;11.144;2024-03-06T07:50:17;7.20;99.90
45643;DHT22;31358;46.008;11.144;2024-03-06T07:52:47;7.30;99.90
45643;DHT22;31358;46.008;11.144;2024-03-06T07:55:13;7.40;99.90
45643;DHT22;31358;46.008;11.144;2024-03-06T07:57:39;7.40;99.90
45643;DHT22;31358;46.008;11.144;2024-03-06T08:00:06;7.40;99.90
45643;DHT22;31358;46.008;11.144;2024-03-06T08:02:40;7.30;99.90
45643;DHT22;31358;46.008;11.144;2024-03-06T08:05:10;7.30;99.90
45643;DHT22;31358;46.008;11.144;2024-03-06T08:07:40;7.30;99.90
45643;DHT22;31358;46.008;11.144;2024-03-06T08:10:11;7.50;99.90
45643;DHT22;31358;46.008;11.144;2024-03-06T08:12:44;7.70;99.90
45643;DHT22;31358;46.008;11.144;2024-03-06T08:15:11;7.70;99.90
45643;DHT22;31358;46.008;11.144;2024-03-06T08:17:39;7.80;99.90
45643;DHT22;31358;46.008;11.144;2024-03-06T08:20:05;7.80;99.90
45643;DHT22;31358;46.008;11.144;2024-03-06T08:22:37;7.70;99.90
45643;DHT22;31358;46.008;11.144;2024-03-06T08:25:13;7.80;99.90
45643;DHT22;31358;46.008;11.144;2024-03-06T08:27:42;7.90;99.90
45643;DHT22;31358;46.008;11.144;2024-03-06T08:30:08;7.90;99.90
45643;DHT22;31358;46.008;11.144;2024-03-06T08:32:35;8.10;99.90
45643;DHT22;31358;46.008;11.144;2024-03-06T08:35:13;8.10;99.90
45643;DHT22;31358;46.008;11.144;2024-03-06T08:37:39;8.20;99.90
45643;DHT22;31358;46.008;11.144;2024-03-06T08:40:06;8.20;99.90
45643;DHT22;31358;46.008;11.144;2024-03-06T08:42:46;8.30;99.90
45643;DHT22;31358;46.008;11.144;2024-03-06T08:45:18;8.40;99.90
45643;DHT22;31358;46.008;11.144;2024-03-06T08:47:44;8.50;99.90
45643;DHT22;31358;46.008;11.144;2024-03-06T08:50:11;8.50;99.90
45643;DHT22;31358;46.008;11.144;2024-03-06T08:52:37;8.60;99.90
45643;DHT22;31358;46.008;11.144;2024-03-06T08:55:04;8.80;99.90
45643;DHT22;31358;46.008;11.144;2024-03-06T08:57:30;8.70;99.90
45643;DHT22;31358;46.008;11.144;2024-03-06T08:59:57;8.70;99.90
45643;DHT22;31358;46.008;11.144;2024-03-06T09:02:23;8.70;99.90
45643;DHT22;31358;46.008;11.144;2024-03-06T09:04:49;8.50;99.90
45643;DHT22;31358;46.008;11.144;2024-03-06T09:07:17;8.40;99.90
45643;DHT22;31358;46.008;11.144;2024-03-06T09:09:43;8.50;99.90
45643;DHT22;31358;46.008;11.144;2024-03-06T09:12:10;8.70;99.90
45643;DHT22;31358;46.008;11.144;2024-03-06T09:14:36;9.00;99.90
45643;DHT22;31358;46.008;11.144;2024-03-06T09:17:03;9.20;99.90
45643;DHT22;31358;46.008;11.144;2024-03-06T09:19:29;9.00;99.90
45643;DHT22;31358;46.008;11.144;2024-03-06T09:21:56;9.00;99.90
45643;DHT22;31358;46.008;11.144;2024-03-06T09:24:22;9.20;99.90
45643;DHT22;31358;46.008;11.144;2024-03-06T09:26:49;9.10;99.90
45643;DHT22;31358;46.008;11.144;2024-03-06T09:29:15;9.30;99.90
45643;DHT22;31358;46.008;11.144;2024-03-06T09:31:41;9.50;99.90
45643;DHT22;31358;46.008;11.144;2024-03-06T09:34:07;9.60;99.90
45643;DHT22;31358;46.008;11.144;2024-03-06T09:36:35;9.60;99.90
45643;DHT22;31358;46.008;11.144;2024-03-06T09:39:01;9.70;99.90
45643;DHT22;31358;46.008;11.144;2024-03-06T09:41:30;9.70;99.90
45643;DHT22;31358;46.008;11.144;2024-03-06T09:43:56;9.70;99.90
45643;DHT22;31358;46.008;11.144;2024-03-06T09:46:21;9.80;99.90
45643;DHT22;31358;46.008;11.144;2024-03-06T09:48:48;9.80;99.90
45643;DHT22;31358;46.008;11.144;2024-03-06T09:51:14;9.90;99.90
45643;DHT22;31358;46.008;11.144;2024-03-06T09:53:41;9.90;99.90
45643;DHT22;31358;46.008;11.144;2024-03-06T09:56:09;10.00;99.90
45643;DHT22;31358;46.008;11.144;2024-03-06T09:58:38;9.90;99.90
45643;DHT22;31358;46.008;11.144;2024-03-06T10:01:05;10.00;99.90
45643;DHT22;31358;46.008;11.144;2024-03-06T10:03:33;9.90;99.90
45643;DHT22;31358;46.008;11.144;2024-03-06T10:05:59;10.00;99.90
45643;DHT22;31358;46.008;11.144;2024-03-06T10:08:25;10.00;99.90
45643;DHT22;31358;46.008;11.144;2024-03-06T10:10:52;10.00;99.90
45643;DHT22;31358;46.008;11.144;2024-03-06T10:13:17;10.10;99.90
45643;DHT22;31358;46.008;11.144;2024-03-06T10:16:00;10.10;99.90
45643;DHT22;31358;46.008;11.144;2024-03-06T10:18:28;10.10;99.90
45643;DHT22;31358;46.008;11.144;2024-03-06T10:20:54;10.10;99.90
45643;DHT22;31358;46.008;11.144;2024-03-06T10:23:20;10.30;99.90
45643;DHT22;31358;46.008;11.144;2024-03-06T10:25:50;10.30;99.90
45643;DHT22;31358;46.008;11.144;2024-03-06T10:28:18;10.40;99.90
45643;DHT22;31358;46.008;11.144;2024-03-06T10:30:44;10.60;99.90
45643;DHT22;31358;46.008;11.144;2024-03-06T10:33:16;10.40;99.90
45643;DHT22;31358;46.008;11.144;2024-03-06T10:35:45;10.20;99.90
45643;DHT22;31358;46.008;11.144;2024-03-06T10:38:12;10.30;99.90
45643;DHT22;31358;46.008;11.144;2024-03-06T10:40:39;10.30;99.90
45643;DHT22;31358;46.008;11.144;2024-03-06T10:43:06;10.30;99.90
45643;DHT22;31358;46.008;11.144;2024-03-06T10:45:40;10.50;99.90
45643;DHT22;31358;46.008;11.144;2024-03-06T10:48:08;10.60;99.90
45643;DHT22;31358;46.008;11.144;2024-03-06T10:50:39;10.80;99.90
45643;DHT22;31358;46.008;11.144;2024-03-06T10:53:08;10.90;99.90
45643;DHT22;31358;46.008;11.144;2024-03-06T10:55:36;11.10;99.90
45643;DHT22;31358;46.008;11.144;2024-03-06T10:58:05;11.10;99.90
45643;DHT22;31358;46.008;11.144;2024-03-06T11:00:35;11.00;99.90
45643;DHT22;31358;46.008;11.144;2024-03-06T11:03:07;11.10;99.90
45643;DHT22;31358;46.008;11.144;2024-03-06T11:05:40;11.30;99.90
45643;DHT22;31358;46.008;11.144;2024-03-06T11:08:07;11.70;99.90
45643;DHT22;31358;46.008;11.144;2024-03-06T11:10:40;11.80;99.90
45643;DHT22;31358;46.008;11.144;2024-03-06T11:15:52;11.60;99.90
45643;DHT22;31358;46.008;11.144;2024-03-06T11:23:34;11.30;99.90
45643;DHT22;31358;46.008;11.144;2024-03-06T11:26:03;11.40;99.90
45643;DHT22;31358;46.008;11.144;2024-03-06T11:28:33;11.80;99.90
45643;DHT22;31358;46.008;11.144;2024-03-06T11:33:35;11.90;99.90
45643;DHT22;31358;46.008;11.144;2024-03-06T11:36:21;12.10;99.90
45643;DHT22;31358;46.008;11.144;2024-03-06T11:38:51;11.80;99.90
45643;DHT22;31358;46.008;11.144;2024-03-06T11:41:19;11.60;99.90
45643;DHT22;31358;46.008;11.144;2024-03-06T11:43:46;11.60;99.90
45643;DHT22;31358;46.008;11.144;2024-03-06T11:46:14;11.90;99.90
45643;DHT22;31358;46.008;11.144;2024-03-06T11:48:40;12.20;99.90
45643;DHT22;31358;46.008;11.144;2024-03-06T11:51:06;12.50;99.90
45643;DHT22;31358;46.008;11.144;2024-03-06T11:53:35;12.50;99.90
45643;DHT22;31358;46.008;11.144;2024-03-06T11:56:06;12.60;99.90
45643;DHT22;31358;46.008;11.144;2024-03-06T11:58:33;12.70;99.90
45643;DHT22;31358;46.008;11.144;2024-03-06T12:00:59;12.60;99.90
45643;DHT22;31358;46.008;11.144;2024-03-06T12:03:27;12.40;99.90
45643;DHT22;31358;46.008;11.144;2024-03-06T12:05:53;12.40;99.90
45643;DHT22;31358;46.008;11.144;2024-03-06T12:08:19;12.50;99.90
45643;DHT22;31358;46.008;11.144;2024-03-06T12:10:46;12.70;99.90
45643;DHT22;31358;46.008;11.144;2024-03-06T12:13:13;13.10;99.90
45643;DHT22;31358;46.008;11.144;2024-03-06T12:15:41;12.70;99.90
45643;DHT22;31358;46.008;11.144;2024-03-06T12:18:07;12.50;99.90
45643;DHT22;31358;46.008;11.144;2024-03-06T12:20:33;12.50;99.90
45643;DHT22;31358;46.008;11.144;2024-03-06T12:22:59;12.70;99.90
45643;DHT22;31358;46.008;11.144;2024-03-06T12:25:26;12.90;99.90
45643;DHT22;31358;46.008;11.144;2024-03-06T12:27:54;13.10;99.90
45643;DHT22;31358;46.008;11.144;2024-03-06T12:30:21;13.00;99.90
45643;DHT22;31358;46.008;11.144;2024-03-06T12:33:01;12.70;99.90
45643;DHT22;31358;46.008;11.144;2024-03-06T12:35:30;12.80;99.90
45643;DHT22;31358;46.008;11.144;2024-03-06T12:37:57;12.70;99.90
45643;DHT22;31358;46.008;11.144;2024-03-06T12:40:23;12.60;99.90
45643;DHT22;31358;46.008;11.144;2024-03-06T12:42:49;12.50;99.90
45643;DHT22;31358;46.008;11.144;2024-03-06T12:45:17;12.60;99.90
45643;DHT22;31358;46.008;11.144;2024-03-06T12:47:44;12.70;99.90
45643;DHT22;31358;46.008;11.144;2024-03-06T12:50:14;12.90;99.90
45643;DHT22;31358;46.008;11.144;2024-03-06T12:52:40;12.70;99.90
45643;DHT22;31358;46.008;11.144;2024-03-06T12:55:07;12.70;99.90
45643;DHT22;31358;46.008;11.144;2024-03-06T12:57:33;12.80;99.90
45643;DHT22;31358;46.008;11.144;2024-03-06T12:59:59;12.60;99.90
45643;DHT22;31358;46.008;11.144;2024-03-06T13:02:25;12.40;99.90
45643;DHT22;31358;46.008;11.144;2024-03-06T13:04:51;12.60;99.90
45643;DHT22;31358;46.008;11.144;2024-03-06T13:07:18;12.70;99.90
45643;DHT22;31358;46.008;11.144;2024-03-06T13:09:44;12.80;99.90
45643;DHT22;31358;46.008;11.144;2024-03-06T13:12:10;12.60;99.90
45643;DHT22;31358;46.008;11.144;2024-03-06T13:14:36;12.90;99.90
45643;DHT22;31358;46.008;11.144;2024-03-06T13:17:02;12.70;99.90
45643;DHT22;31358;46.008;11.144;2024-03-06T13:19:28;12.60;99.90
45643;DHT22;31358;46.008;11.144;2024-03-06T13:21:54;12.60;99.90
45643;DHT22;31358;46.008;11.144;2024-03-06T13:24:20;12.70;99.90
45643;DHT22;31358;46.008;11.144;2024-03-06T13:26:46;12.90;99.90
45643;DHT22;31358;46.008;11.144;2024-03-06T13:29:13;12.90;99.90
45643;DHT22;31358;46.008;11.144;2024-03-06T13:31:39;13.00;99.90
45643;DHT22;31358;46.008;11.144;2024-03-06T13:34:04;12.80;99.90
45643;DHT22;31358;46.008;11.144;2024-03-06T13:36:30;12.70;99.90
45643;DHT22;31358;46.008;11.144;2024-03-06T13:38:56;12.50;99.90
45643;DHT22;31358;46.008;11.144;2024-03-06T13:41:23;12.70;99.90
45643;DHT22;31358;46.008;11.144;2024-03-06T13:43:49;12.90;99.90
45643;DHT22;31358;46.008;11.144;2024-03-06T13:46:15;12.80;99.90
45643;DHT22;31358;46.008;11.144;2024-03-06T13:48:40;12.60;99.90
45643;DHT22;31358;46.008;11.144;2024-03-06T13:51:06;12.60;99.90
45643;DHT22;31358;46.008;11.144;2024-03-06T13:53:32;12.60;99.90
45643;DHT22;31358;46.008;11.144;2024-03-06T13:55:57;12.50;99.90
45643;DHT22;31358;46.008;11.144;2024-03-06T13:58:23;12.40;99.90
45643;DHT22;31358;46.008;11.144;2024-03-06T14:00:49;12.60;99.90
45643;DHT22;31358;46.008;11.144;2024-03-06T14:03:16;12.60;99.90
45643;DHT22;31358;46.008;11.144;2024-03-06T14:05:42;12.80;99.90
45643;DHT22;31358;46.008;11.144;2024-03-06T14:08:07;12.70;99.90
45643;DHT22;31358;46.008;11.144;2024-03-06T14:10:40;12.60;99.90
45643;DHT22;31358;46.008;11.144;2024-03-06T14:13:06;12.50;99.90
45643;DHT22;31358;46.008;11.144;2024-03-06T14:15:33;12.50;99.90
45643;DHT22;31358;46.008;11.144;2024-03-06T14:17:58;12.50;99.90
45643;DHT22;31358;46.008;11.144;2024-03-06T14:20:24;12.50;99.90
45643;DHT22;31358;46.008;11.144;2024-03-06T14:22:50;12.30;99.90
45643;DHT22;31358;46.008;11.144;2024-03-06T14:25:16;12.20;99.90
45643;DHT22;31358;46.008;11.144;2024-03-06T14:27:43;12.10;99.90
45643;DHT22;31358;46.008;11.144;2024-03-06T14:30:09;12.00;99.90
45643;DHT22;31358;46.008;11.144;2024-03-06T14:32:38;11.90;99.90
45643;DHT22;31358;46.008;11.144;2024-03-06T14:35:04;11.80;99.90
45643;DHT22;31358;46.008;11.144;2024-03-06T14:37:30;11.70;99.90
45643;DHT22;31358;46.008;11.144;2024-03-06T14:39:56;11.70;99.90
45643;DHT22;31358;46.008;11.144;2024-03-06T14:42:22;11.60;99.90
45643;DHT22;31358;46.008;11.144;2024-03-06T14:44:49;11.60;99.90
45643;DHT22;31358;46.008;11.144;2024-03-06T14:47:14;11.70;99.90
45643;DHT22;31358;46.008;11.144;2024-03-06T14:49:42;11.60;99.90
45643;DHT22;31358;46.008;11.144;2024-03-06T14:52:14;11.70;99.90
45643;DHT22;31358;46.008;11.144;2024-03-06T14:54:40;11.80;99.90
45643;DHT22;31358;46.008;11.144;2024-03-06T14:57:07;11.80;99.90
45643;DHT22;31358;46.008;11.144;2024-03-06T14:59:34;11.80;99.90
45643;DHT22;31358;46.008;11.144;2024-03-06T15:02:00;11.80;99.90
45643;DHT22;31358;46.008;11.144;2024-03-06T15:04:26;11.80;99.90
45643;DHT22;31358;46.008;11.144;2024-03-06T15:06:51;11.90;99.90
45643;DHT22;31358;46.008;11.144;2024-03-06T15:09:18;11.80;99.90
45643;DHT22;31358;46.008;11.144;2024-03-06T15:11:48;11.70;99.90
45643;DHT22;31358;46.008;11.144;2024-03-06T15:14:14;11.80;99.90
45643;DHT22;31358;46.008;11.144;2024-03-06T15:16:39;11.80;99.90
45643;DHT22;31358;46.008;11.144;2024-03-06T15:19:06;11.90;99.90
45643;DHT22;31358;46.008;11.144;2024-03-06T15:21:31;12.00;99.90
45643;DHT22;31358;46.008;11.144;2024-03-06T15:23:57;12.00;99.90
45643;DHT22;31358;46.008;11.144;2024-03-06T15:26:23;11.90;99.90
45643;DHT22;31358;46.008;11.144;2024-03-06T15:28:49;11.80;99.90
45643;DHT22;31358;46.008;11.144;2024-03-06T15:31:15;11.80;99.90
45643;DHT22;31358;46.008;11.144;2024-03-06T15:33:40;11.80;99.90